createdAt,value
2023-06-21T00:00:41.656Z,25.19
2023-06-21T00:03:10.692Z,25.36
2023-06-21T00:05:39.378Z,24.47
2023-06-21T00:08:08.836Z,24.82
2023-06-21T00:10:35.568Z,24.65
2023-06-21T00:13:02.294Z,24.84
2023-06-21T00:15:29.014Z,24.53
2023-06-21T00:17:55.797Z,24.82
2023-06-21T00:20:23.020Z,24.82
2023-06-21T00:22:56.983Z,24.78
2023-06-21T00:25:27.968Z,24.77
2023-06-21T00:27:54.674Z,24.72
2023-06-21T00:30:21.363Z,24.68
2023-06-21T00:32:50.866Z,25.04
2023-06-21T00:35:17.475Z,24.67
2023-06-21T00:37:45.718Z,24.90
2023-06-21T00:40:15.494Z,24.79
2023-06-21T00:42:44.588Z,25.23
2023-06-21T00:45:16.863Z,25.21
2023-06-21T00:47:44.288Z,24.95
2023-06-21T00:50:11.110Z,24.91
2023-06-21T00:52:40.985Z,24.78
2023-06-21T00:55:09.659Z,24.61
2023-06-21T00:57:37.369Z,24.76
2023-06-21T01:00:07.252Z,24.86
2023-06-21T01:02:35.428Z,24.76
2023-06-21T01:05:04.613Z,24.90
2023-06-21T01:07:40.216Z,24.84
2023-06-21T01:10:15.502Z,25.11
2023-06-21T01:13:01.585Z,25.01
2023-06-21T01:15:33.282Z,25.13
2023-06-21T01:18:03.963Z,24.95
2023-06-21T01:20:32.114Z,24.87
2023-06-21T01:23:04.760Z,25.00
2023-06-21T01:25:35.378Z,24.93
2023-06-21T01:28:21.693Z,25.00
2023-06-21T01:30:50.048Z,24.58
2023-06-21T01:33:20.078Z,24.71
2023-06-21T01:35:46.951Z,24.70
2023-06-21T01:38:13.544Z,24.57
2023-06-21T01:40:40.278Z,24.61
2023-06-21T01:43:07.286Z,24.67
2023-06-21T01:45:34.073Z,24.81
2023-06-21T01:48:01.469Z,24.44
2023-06-21T01:50:30.850Z,24.26
2023-06-21T01:52:57.691Z,24.26
2023-06-21T01:55:27.160Z,23.97
2023-06-21T01:57:53.935Z,24.01
2023-06-21T02:00:23.123Z,24.13
2023-06-21T02:02:56.948Z,24.33
2023-06-21T02:05:24.887Z,24.40
2023-06-21T02:07:51.795Z,24.20
2023-06-21T02:10:22.537Z,24.17
2023-06-21T02:12:49.842Z,24.42
2023-06-21T02:15:18.955Z,24.39
2023-06-21T02:17:52.638Z,23.96
2023-06-21T02:20:23.169Z,23.99
2023-06-21T02:22:49.922Z,24.00
2023-06-21T02:25:17.524Z,24.20
2023-06-21T02:27:44.189Z,24.14
2023-06-21T02:30:12.371Z,24.04
2023-06-21T02:32:39.309Z,24.07
2023-06-21T02:35:06.486Z,24.11
2023-06-21T02:37:33.479Z,23.97
2023-06-21T02:40:00.350Z,24.00
2023-06-21T02:42:28.749Z,23.88
2023-06-21T02:44:55.494Z,23.99
2023-06-21T02:47:25.166Z,23.76
2023-06-21T02:49:53.105Z,23.78
2023-06-21T02:52:22.235Z,23.79
2023-06-21T02:54:48.897Z,23.71
2023-06-21T02:57:15.515Z,23.80
2023-06-21T02:59:45.794Z,24.00
2023-06-21T03:02:12.792Z,24.04
2023-06-21T03:04:39.396Z,23.99
2023-06-21T03:07:06.325Z,23.98
2023-06-21T03:09:33.723Z,23.90
2023-06-21T03:12:03.695Z,23.76
2023-06-21T03:14:30.676Z,23.71
2023-06-21T03:17:00.496Z,23.68
2023-06-21T03:19:29.610Z,23.64
2023-06-21T03:21:59.280Z,23.70
2023-06-21T03:24:28.040Z,23.38
2023-06-21T03:26:55.217Z,23.63
2023-06-21T03:29:21.874Z,23.67
2023-06-21T03:31:49.254Z,23.67
2023-06-21T03:34:18.331Z,23.45
2023-06-21T03:36:50.316Z,23.54
2023-06-21T03:39:17.019Z,23.54
2023-06-21T03:41:50.975Z,23.40
2023-06-21T03:44:17.909Z,23.31
2023-06-21T03:46:44.734Z,23.59
2023-06-21T03:49:11.457Z,23.57
2023-06-21T03:51:38.162Z,23.38
2023-06-21T03:54:05.103Z,23.34
2023-06-21T03:56:31.744Z,23.17
2023-06-21T03:59:02.254Z,23.24
2023-06-21T04:01:28.934Z,23.50
2023-06-21T04:03:56.765Z,23.18
2023-06-21T04:06:23.678Z,23.27
2023-06-21T04:08:52.741Z,23.25
2023-06-21T04:11:19.348Z,23.29
2023-06-21T04:13:45.974Z,23.15
2023-06-21T04:16:12.691Z,23.30
2023-06-21T04:18:39.562Z,22.89
2023-06-21T04:21:09.457Z,22.98
2023-06-21T04:23:36.848Z,23.00
2023-06-21T04:26:07.149Z,23.03
2023-06-21T04:28:37.326Z,22.96
2023-06-21T04:31:04.029Z,22.80
2023-06-21T04:33:33.007Z,22.97
2023-06-21T04:35:59.687Z,22.92
2023-06-21T04:38:26.263Z,22.78
2023-06-21T04:40:55.784Z,22.68
2023-06-21T04:43:28.723Z,22.74
2023-06-21T04:45:55.721Z,22.75
2023-06-21T04:48:25.737Z,22.81
2023-06-21T04:50:52.659Z,22.71
2023-06-21T04:53:19.251Z,22.81
2023-06-21T04:55:45.893Z,22.91
2023-06-21T04:58:13.792Z,22.86
2023-06-21T05:00:40.579Z,23.02
2023-06-21T05:03:07.371Z,23.14
2023-06-21T05:05:35.013Z,23.20
2023-06-21T05:08:01.935Z,23.25
2023-06-21T05:10:30.844Z,23.25
2023-06-21T05:13:01.242Z,23.04
2023-06-21T05:15:27.858Z,22.92
2023-06-21T05:18:02.026Z,23.08
2023-06-21T05:20:28.913Z,23.21
2023-06-21T05:22:55.855Z,23.35
2023-06-21T05:25:33.184Z,23.16
2023-06-21T05:27:59.855Z,23.16
2023-06-21T05:30:26.704Z,23.32
2023-06-21T05:32:53.615Z,23.26
2023-06-21T05:35:22.370Z,23.34
2023-06-21T05:37:49.028Z,23.49
2023-06-21T05:40:16.603Z,23.43
2023-06-21T05:42:43.281Z,23.35
2023-06-21T05:45:10.272Z,23.30
2023-06-21T05:47:37.345Z,23.27
2023-06-21T05:50:04.486Z,23.23
2023-06-21T05:52:31.473Z,23.44
2023-06-21T05:54:58.136Z,23.18
2023-06-21T05:57:30.883Z,23.21
2023-06-21T06:00:00.757Z,23.59
2023-06-21T06:02:31.752Z,23.50
2023-06-21T06:04:58.487Z,23.23
2023-06-21T06:07:27.053Z,23.36
2023-06-21T06:09:54.042Z,23.47
2023-06-21T06:12:22.705Z,23.33
2023-06-21T06:14:49.564Z,23.56
2023-06-21T06:17:17.862Z,23.70
2023-06-21T06:19:44.587Z,23.66
2023-06-21T06:22:13.991Z,23.85
2023-06-21T06:24:40.710Z,23.79
2023-06-21T06:27:07.499Z,24.06
2023-06-21T06:29:45.521Z,23.97
2023-06-21T06:32:12.290Z,24.10
2023-06-21T06:34:38.921Z,23.98
2023-06-21T06:37:14.589Z,23.98
2023-06-21T06:39:42.744Z,24.10
2023-06-21T06:42:11.356Z,23.94
2023-06-21T06:44:40.971Z,24.12
2023-06-21T06:47:09.676Z,23.94
2023-06-21T06:49:38.737Z,23.89
2023-06-21T06:52:05.750Z,23.87
2023-06-21T06:54:32.553Z,24.01
2023-06-21T06:57:01.702Z,23.98
2023-06-21T06:59:31.193Z,24.35
2023-06-21T07:01:57.890Z,24.27
2023-06-21T07:04:29.430Z,24.25
2023-06-21T07:07:05.400Z,24.25
2023-06-21T07:09:34.338Z,24.43
2023-06-21T07:12:02.726Z,24.73
2023-06-21T07:14:29.396Z,24.79
2023-06-21T07:16:56.048Z,24.64
2023-06-21T07:19:22.730Z,24.65
2023-06-21T07:21:51.026Z,24.84
2023-06-21T07:24:17.754Z,24.96
2023-06-21T07:26:44.381Z,25.09
2023-06-21T07:29:11.217Z,25.33
2023-06-21T07:31:37.963Z,25.76
2023-06-21T07:34:09.625Z,25.52
2023-06-21T07:36:39.980Z,25.43
2023-06-21T07:39:11.122Z,25.10
2023-06-21T07:41:40.798Z,25.34
2023-06-21T07:44:07.386Z,25.36
2023-06-21T07:46:34.165Z,25.41
2023-06-21T07:49:00.804Z,25.17
2023-06-21T07:51:27.465Z,25.22
2023-06-21T07:53:54.060Z,25.15
2023-06-21T07:56:20.740Z,25.05
2023-06-21T07:58:50.623Z,25.17
2023-06-21T08:01:17.298Z,25.10
2023-06-21T08:03:43.953Z,25.43
2023-06-21T08:06:10.682Z,25.46
2023-06-21T08:08:37.284Z,25.66
2023-06-21T08:11:06.480Z,25.83
2023-06-21T08:13:33.229Z,25.75
2023-06-21T08:15:59.870Z,26.04
2023-06-21T08:18:26.470Z,26.18
2023-06-21T08:20:56.950Z,25.80
2023-06-21T08:23:23.637Z,25.67
2023-06-21T08:25:50.783Z,25.73
2023-06-21T08:28:20.634Z,25.54
2023-06-21T08:30:47.301Z,25.60
2023-06-21T08:33:16.727Z,25.63
2023-06-21T08:35:43.391Z,25.53
2023-06-21T08:40:47.069Z,25.66
2023-06-21T08:43:16.801Z,25.86
2023-06-21T08:45:44.255Z,26.11
2023-06-21T08:48:10.905Z,26.01
2023-06-21T08:50:38.520Z,25.99
2023-06-21T08:53:12.914Z,26.12
2023-06-21T08:55:42.091Z,26.18
2023-06-21T08:58:13.582Z,26.13
2023-06-21T09:00:47.412Z,26.48
2023-06-21T09:03:19.581Z,26.48
2023-06-21T09:05:50.261Z,26.62
2023-06-21T09:08:22.959Z,26.68
2023-06-21T09:10:50.303Z,26.72
2023-06-21T09:13:21.072Z,26.84
2023-06-21T09:15:50.143Z,27.16
2023-06-21T09:18:16.980Z,26.83
2023-06-21T09:20:51.013Z,26.78
2023-06-21T09:23:17.885Z,26.87
2023-06-21T09:25:46.179Z,27.17
2023-06-21T09:28:19.204Z,27.11
2023-06-21T09:30:46.371Z,26.79
2023-06-21T09:33:13.551Z,27.16
2023-06-21T09:35:40.720Z,27.20
2023-06-21T09:38:20.467Z,27.34
2023-06-21T09:40:47.133Z,27.88
2023-06-21T09:43:16.157Z,27.91
2023-06-21T09:45:42.961Z,28.17
2023-06-21T09:48:14.989Z,28.01
2023-06-21T09:50:45.375Z,27.81
2023-06-21T09:53:14.903Z,27.97
2023-06-21T09:55:44.694Z,28.16
2023-06-21T09:58:15.423Z,28.15
2023-06-21T10:00:44.116Z,28.25
2023-06-21T10:03:10.985Z,28.27
2023-06-21T10:05:56.004Z,28.08
2023-06-21T10:08:35.984Z,27.97
2023-06-21T10:11:05.227Z,27.94
2023-06-21T10:13:33.764Z,28.14
2023-06-21T10:16:01.673Z,27.98
2023-06-21T10:18:28.745Z,28.00
2023-06-21T10:21:09.102Z,27.90
2023-06-21T10:23:40.642Z,27.88
2023-06-21T10:26:07.931Z,28.00
2023-06-21T10:28:38.980Z,28.14
2023-06-21T10:31:05.827Z,28.62
2023-06-21T10:33:34.236Z,28.67
2023-06-21T10:36:01.636Z,28.58
2023-06-21T10:38:37.533Z,28.80
2023-06-21T10:41:08.229Z,29.05
2023-06-21T10:43:35.728Z,29.20
2023-06-21T10:46:04.787Z,29.38
2023-06-21T10:48:40.924Z,29.66
2023-06-21T10:51:10.412Z,29.77
2023-06-21T10:53:43.781Z,30.51
2023-06-21T10:56:14.104Z,31.40
2023-06-21T10:58:42.763Z,32.45
2023-06-21T11:01:10.916Z,31.82
2023-06-21T11:03:41.715Z,30.66
2023-06-21T11:06:23.910Z,31.23
2023-06-21T11:08:50.962Z,30.64
2023-06-21T11:11:33.964Z,30.12
2023-06-21T11:14:10.025Z,31.05
2023-06-21T11:16:43.433Z,29.89
2023-06-21T11:19:12.290Z,29.99
2023-06-21T11:21:45.780Z,30.93
2023-06-21T11:24:25.344Z,30.76
2023-06-21T11:26:53.238Z,29.97
2023-06-21T11:29:20.469Z,29.84
2023-06-21T11:31:50.239Z,29.99
2023-06-21T11:34:28.043Z,29.73
2023-06-21T11:36:54.793Z,30.93
2023-06-21T11:39:21.424Z,31.63
2023-06-21T11:41:48.418Z,32.01
2023-06-21T11:44:16.274Z,33.44
2023-06-21T11:46:46.686Z,31.36
2023-06-21T11:49:13.707Z,30.94
2023-06-21T11:52:03.716Z,31.80
2023-06-21T11:54:32.373Z,32.55
2023-06-21T11:57:01.763Z,33.33
2023-06-21T11:59:28.547Z,34.46
2023-06-21T12:01:55.183Z,34.40
2023-06-21T12:04:26.493Z,34.68
2023-06-21T12:06:54.488Z,34.67
2023-06-21T12:09:21.216Z,34.10
2023-06-21T12:11:51.902Z,33.06
2023-06-21T12:14:20.258Z,32.94
2023-06-21T12:16:50.135Z,33.06
2023-06-21T12:19:16.894Z,33.26
2023-06-21T12:21:46.315Z,33.22
2023-06-21T12:24:13.315Z,33.70
2023-06-21T12:26:50.929Z,32.87
2023-06-21T12:29:17.644Z,32.55
2023-06-21T12:31:44.764Z,32.97
2023-06-21T12:34:19.172Z,33.37
2023-06-21T12:36:48.899Z,34.07
2023-06-21T12:39:16.151Z,35.05
2023-06-21T12:41:45.833Z,34.42
2023-06-21T12:44:23.259Z,33.09
2023-06-21T12:46:51.429Z,31.45
2023-06-21T12:49:19.105Z,30.59
2023-06-21T12:51:50.062Z,31.57
2023-06-21T12:54:23.242Z,32.20
2023-06-21T12:56:53.703Z,34.02
2023-06-21T12:59:22.583Z,34.42
2023-06-21T13:01:51.419Z,34.13
2023-06-21T13:04:19.263Z,33.28
2023-06-21T13:06:46.140Z,34.11
2023-06-21T13:09:15.939Z,34.79
2023-06-21T13:11:42.793Z,34.43
2023-06-21T13:14:11.781Z,34.97
2023-06-21T13:16:47.636Z,34.73
2023-06-21T13:19:14.278Z,35.29
2023-06-21T13:21:40.904Z,35.76
2023-06-21T13:24:07.703Z,34.66
2023-06-21T13:26:34.345Z,34.65
2023-06-21T13:29:01.112Z,34.00
2023-06-21T13:31:30.249Z,33.70
2023-06-21T13:34:04.538Z,32.80
2023-06-21T13:36:31.333Z,32.14
2023-06-21T13:38:57.973Z,32.06
2023-06-21T13:41:24.703Z,32.60
2023-06-21T13:43:54.794Z,32.04
2023-06-21T13:46:21.743Z,32.98
2023-06-21T13:48:48.520Z,33.57
2023-06-21T13:51:15.275Z,33.15
2023-06-21T13:53:45.637Z,33.43
2023-06-21T13:56:12.482Z,33.18
2023-06-21T13:58:40.290Z,33.13
2023-06-21T14:01:08.332Z,32.73
2023-06-21T14:03:35.161Z,32.68
2023-06-21T14:06:10.029Z,32.83
2023-06-21T14:08:36.669Z,33.34
2023-06-21T14:11:03.287Z,33.21
2023-06-21T14:13:30.012Z,33.36
2023-06-21T14:15:56.787Z,33.54
2023-06-21T14:18:30.762Z,32.82
2023-06-21T14:21:09.488Z,32.13
2023-06-21T14:23:36.404Z,32.61
2023-06-21T14:26:03.174Z,32.90
2023-06-21T14:28:34.894Z,32.98
2023-06-21T14:31:01.780Z,32.92
2023-06-21T14:33:28.609Z,33.22
2023-06-21T14:35:55.382Z,33.32
2023-06-21T14:38:25.007Z,32.59
2023-06-21T14:40:51.885Z,32.27
2023-06-21T14:43:19.758Z,32.07
2023-06-21T14:45:46.456Z,31.79
2023-06-21T14:48:14.891Z,31.50
2023-06-21T14:50:41.960Z,31.56
2023-06-21T14:53:08.737Z,30.77
2023-06-21T14:55:35.461Z,30.40
2023-06-21T14:58:02.101Z,30.28
2023-06-21T15:00:29.056Z,30.15
2023-06-21T15:02:56.311Z,30.07
2023-06-21T15:05:23.122Z,29.74
2023-06-21T15:07:52.172Z,30.19
2023-06-21T15:10:18.928Z,30.62
2023-06-21T15:12:59.917Z,31.47
2023-06-21T15:15:31.309Z,32.20
2023-06-21T15:17:58.846Z,32.51
2023-06-21T15:20:25.513Z,32.34
2023-06-21T15:22:52.290Z,31.70
2023-06-21T15:25:19.111Z,31.93
2023-06-21T15:27:50.096Z,32.14
2023-06-21T15:30:16.943Z,32.50
2023-06-21T15:32:44.054Z,32.71
2023-06-21T15:35:12.044Z,32.28
2023-06-21T15:37:40.145Z,31.93
2023-06-21T15:40:09.757Z,32.06
2023-06-21T15:42:39.898Z,31.81
2023-06-21T15:45:07.016Z,31.50
2023-06-21T15:47:36.618Z,31.51
2023-06-21T15:50:07.568Z,31.25
2023-06-21T15:52:38.717Z,31.29
2023-06-21T15:55:05.945Z,31.73
2023-06-21T15:57:38.942Z,31.89
2023-06-21T16:00:06.952Z,32.05
2023-06-21T16:02:42.511Z,32.21
2023-06-21T16:05:09.381Z,31.96
2023-06-21T16:07:35.997Z,32.16
2023-06-21T16:10:02.715Z,31.61
2023-06-21T16:12:29.861Z,31.37
2023-06-21T16:14:56.829Z,31.68
2023-06-21T16:17:23.632Z,31.87
2023-06-21T16:19:50.380Z,31.48
2023-06-21T16:22:17.036Z,31.80
2023-06-21T16:24:44.257Z,31.68
2023-06-21T16:27:10.893Z,31.59
2023-06-21T16:29:37.610Z,31.20
2023-06-21T16:32:04.487Z,31.04
2023-06-21T16:34:31.325Z,31.02
2023-06-21T16:36:59.018Z,31.28
2023-06-21T16:39:25.665Z,31.76
2023-06-21T16:41:52.285Z,31.85
2023-06-21T16:44:19.801Z,31.89
2023-06-21T16:46:46.402Z,31.64
2023-06-21T16:49:26.675Z,31.75
2023-06-21T16:51:54.038Z,31.46
2023-06-21T16:54:20.687Z,30.92
2023-06-21T16:56:49.529Z,30.70
2023-06-21T16:59:16.260Z,30.53
2023-06-21T17:01:43.410Z,30.34
2023-06-21T17:04:11.153Z,30.43
2023-06-21T17:06:43.566Z,30.44
2023-06-21T17:09:10.370Z,30.44
2023-06-21T17:11:37.020Z,30.48
2023-06-21T17:14:04.403Z,30.44
2023-06-21T17:16:31.438Z,30.64
2023-06-21T17:18:58.737Z,30.71
2023-06-21T17:21:25.721Z,30.70
2023-06-21T17:23:55.266Z,30.48
2023-06-21T17:26:29.241Z,30.64
2023-06-21T17:28:57.066Z,30.55
2023-06-21T17:31:23.791Z,30.49
2023-06-21T17:33:50.538Z,30.47
2023-06-21T17:36:17.153Z,30.46
2023-06-21T17:38:43.841Z,30.27
2023-06-21T17:41:10.482Z,30.35
2023-06-21T17:43:37.144Z,30.31
2023-06-21T17:46:06.644Z,30.18
2023-06-21T17:48:33.332Z,30.11
2023-06-21T17:51:00.052Z,30.07
2023-06-21T17:53:26.819Z,30.36
2023-06-21T17:55:53.440Z,30.48
2023-06-21T17:58:23.124Z,30.41
2023-06-21T18:00:49.901Z,30.20
2023-06-21T18:03:16.654Z,30.23
2023-06-21T18:05:43.393Z,30.17
2023-06-21T18:08:10.053Z,30.11
2023-06-21T18:10:36.692Z,29.99
2023-06-21T18:13:06.036Z,30.10
2023-06-21T18:15:32.983Z,30.07
2023-06-21T18:17:59.759Z,29.72
2023-06-21T18:20:33.892Z,29.95
2023-06-21T18:23:00.568Z,30.04
2023-06-21T18:25:27.509Z,29.82
2023-06-21T18:27:57.460Z,29.92
2023-06-21T18:30:31.774Z,29.68
2023-06-21T18:33:04.748Z,29.61
2023-06-21T18:35:31.482Z,29.65
2023-06-21T18:38:00.187Z,29.61
2023-06-21T18:40:27.051Z,29.64
2023-06-21T18:42:53.819Z,29.56
2023-06-21T18:45:22.887Z,29.51
2023-06-21T18:47:51.750Z,29.37
2023-06-21T18:50:18.765Z,29.13
2023-06-21T18:52:45.417Z,28.99
2023-06-21T18:55:12.832Z,28.85
2023-06-21T18:57:39.430Z,28.66
2023-06-21T19:00:06.326Z,28.74
2023-06-21T19:02:33.753Z,28.53
2023-06-21T19:05:00.721Z,28.60
2023-06-21T19:07:33.274Z,28.49
2023-06-21T19:10:03.355Z,28.48
2023-06-21T19:12:33.290Z,28.06
2023-06-21T19:15:02.824Z,28.22
2023-06-21T19:17:33.254Z,28.23
2023-06-21T19:20:00.227Z,27.97
2023-06-21T19:22:33.640Z,27.82
2023-06-21T19:25:01.118Z,27.90
2023-06-21T19:27:27.913Z,28.10
2023-06-21T19:29:55.778Z,28.16
2023-06-21T19:32:22.418Z,28.31
2023-06-21T19:34:49.996Z,28.38
2023-06-21T19:37:18.808Z,28.35
2023-06-21T19:39:48.056Z,28.21
2023-06-21T19:42:14.664Z,28.13
2023-06-21T19:44:42.035Z,28.13
2023-06-21T19:47:10.695Z,27.78
2023-06-21T19:49:38.105Z,27.67
2023-06-21T19:52:08.175Z,27.52
2023-06-21T19:54:34.951Z,27.55
2023-06-21T19:57:01.584Z,27.35
2023-06-21T19:59:28.608Z,27.45
2023-06-21T20:01:55.261Z,27.11
2023-06-21T20:04:21.994Z,26.91
2023-06-21T20:06:48.814Z,26.77
2023-06-21T20:09:15.685Z,26.60
2023-06-21T20:11:42.343Z,26.56
2023-06-21T20:14:09.066Z,26.40
2023-06-21T20:16:35.660Z,25.95
2023-06-21T20:19:02.591Z,25.86
2023-06-21T20:21:29.386Z,25.69
2023-06-21T20:23:56.059Z,25.73
2023-06-21T20:26:22.749Z,25.76
2023-06-21T20:28:50.885Z,25.66
2023-06-21T20:31:17.699Z,25.59
2023-06-21T20:33:44.486Z,25.64
2023-06-21T20:36:11.789Z,25.77
2023-06-21T20:38:38.525Z,25.76
2023-06-21T20:43:46.593Z,25.48
2023-06-21T20:46:15.554Z,25.36
2023-06-21T20:48:42.609Z,25.48
2023-06-21T20:51:09.226Z,25.23
2023-06-21T20:53:35.843Z,25.11
2023-06-21T20:56:02.700Z,25.06
2023-06-21T20:58:29.647Z,25.05
2023-06-21T21:00:57.077Z,24.81
2023-06-21T21:03:23.715Z,24.63
2023-06-21T21:05:50.549Z,24.46
2023-06-21T21:08:17.197Z,24.52
2023-06-21T21:10:43.965Z,24.31
2023-06-21T21:13:10.582Z,24.16
2023-06-21T21:15:37.231Z,24.02
2023-06-21T21:18:04.141Z,23.96
2023-06-21T21:20:31.004Z,23.91
2023-06-21T21:22:57.690Z,23.91
2023-06-21T21:25:25.316Z,24.16
2023-06-21T21:27:51.849Z,24.04
2023-06-21T21:30:18.701Z,23.96
2023-06-21T21:32:45.402Z,23.99
2023-06-21T21:35:12.178Z,24.29
2023-06-21T21:37:38.797Z,24.14
2023-06-21T21:40:06.918Z,24.29
2023-06-21T21:42:33.541Z,24.20
2023-06-21T21:45:00.166Z,24.10
2023-06-21T21:47:27.094Z,24.00
2023-06-21T21:49:54.273Z,23.84
2023-06-21T21:52:20.911Z,23.38
2023-06-21T21:54:47.564Z,23.04
2023-06-21T21:57:14.097Z,23.13
2023-06-21T21:59:40.795Z,23.28
2023-06-21T22:02:22.231Z,23.39
2023-06-21T22:05:04.857Z,23.12
2023-06-21T22:07:32.258Z,23.28
2023-06-21T22:10:17.923Z,23.53
2023-06-21T22:12:54.670Z,23.20
2023-06-21T22:15:31.375Z,22.54
2023-06-21T22:21:10.795Z,22.69
2023-06-21T22:27:30.823Z,22.66
2023-06-21T22:33:11.863Z,22.25
2023-06-21T22:36:04.868Z,22.07
2023-06-21T22:38:31.636Z,22.08
2023-06-21T22:40:58.405Z,22.10
2023-06-21T22:43:25.242Z,21.96
2023-06-21T22:45:56.686Z,22.03
2023-06-21T22:48:25.474Z,22.17
2023-06-21T22:50:59.086Z,22.07
2023-06-21T22:53:25.759Z,22.22
2023-06-21T22:55:59.791Z,22.10
2023-06-21T22:58:32.297Z,22.47
2023-06-21T23:00:59.023Z,22.50
2023-06-21T23:03:27.445Z,22.57
2023-06-21T23:05:57.299Z,22.51
2023-06-21T23:08:26.935Z,22.03
2023-06-21T23:10:53.585Z,22.09
2023-06-21T23:13:23.241Z,21.99
2023-06-21T23:15:50.058Z,22.28
2023-06-21T23:18:16.693Z,22.41
2023-06-21T23:20:43.429Z,22.31
2023-06-21T23:23:16.002Z,22.13
2023-06-21T23:25:43.376Z,21.90
2023-06-21T23:28:10.057Z,21.35
2023-06-21T23:30:36.997Z,20.91
2023-06-21T23:33:12.028Z,21.38
2023-06-21T23:35:41.689Z,21.96
2023-06-21T23:38:08.389Z,22.02
2023-06-21T23:40:37.427Z,22.21
2023-06-21T23:43:04.706Z,21.88
2023-06-21T23:45:40.392Z,21.72
2023-06-21T23:48:07.810Z,21.39
2023-06-21T23:50:37.104Z,21.70
2023-06-21T23:53:03.733Z,21.71
2023-06-21T23:55:30.333Z,21.99
2023-06-21T23:58:00.606Z,21.96
